createdAt,value
2022-12-25T00:02:30.875Z,81.28
2022-12-25T00:07:34.378Z,81.36
2022-12-25T00:12:38.887Z,81.44
2022-12-25T00:17:43.945Z,81.53
2022-12-25T00:22:47.774Z,81.36
2022-12-25T00:27:51.091Z,81.39
2022-12-25T00:32:54.371Z,81.41
2022-12-25T00:37:57.603Z,81.56
2022-12-25T00:43:00.904Z,81.65
2022-12-25T00:48:05.067Z,81.81
2022-12-25T00:53:08.372Z,81.82
2022-12-25T00:58:11.628Z,81.92
2022-12-25T01:03:15.461Z,81.78
2022-12-25T01:08:18.752Z,81.91
2022-12-25T01:13:22.069Z,81.80
2022-12-25T01:18:26.776Z,81.61
2022-12-25T01:23:30.078Z,81.20
2022-12-25T01:28:33.418Z,81.34
2022-12-25T01:33:36.734Z,81.27
2022-12-25T01:38:40.006Z,80.95
2022-12-25T01:44:19.019Z,81.25
2022-12-25T01:49:26.186Z,80.92
2022-12-25T01:54:56.192Z,80.75
2022-12-25T02:00:01.303Z,80.73
2022-12-25T02:05:12.521Z,80.63
2022-12-25T02:10:15.903Z,80.79
2022-12-25T02:15:22.623Z,80.87
2022-12-25T02:20:28.966Z,80.79
2022-12-25T02:26:06.242Z,80.49
2022-12-25T02:31:20.409Z,80.56
2022-12-25T02:36:29.177Z,80.70
2022-12-25T02:41:38.982Z,80.60
2022-12-25T02:47:03.358Z,80.57
2022-12-25T02:52:33.316Z,80.83
2022-12-25T02:58:05.922Z,81.04
2022-12-25T03:03:30.004Z,81.37
2022-12-25T03:08:41.751Z,81.37
2022-12-25T03:13:49.974Z,81.34
2022-12-25T03:18:56.157Z,81.27
2022-12-25T03:24:20.853Z,81.19
2022-12-25T03:29:52.391Z,81.09
2022-12-25T03:35:23.405Z,80.81
2022-12-25T03:40:52.766Z,80.71
2022-12-25T03:46:24.023Z,80.65
2022-12-25T03:51:51.298Z,80.42
2022-12-25T03:57:14.695Z,80.63
2022-12-25T04:02:37.211Z,80.73
2022-12-25T04:07:59.348Z,80.81
2022-12-25T04:13:21.402Z,81.01
2022-12-25T04:18:43.439Z,81.22
2022-12-25T04:24:05.509Z,81.42
2022-12-25T04:29:27.718Z,81.64
2022-12-25T04:34:49.883Z,81.80
2022-12-25T04:39:53.154Z,81.98
2022-12-25T04:44:56.477Z,82.05
2022-12-25T04:49:59.717Z,82.11
2022-12-25T04:55:04.293Z,82.15
2022-12-25T05:00:08.763Z,82.17
2022-12-25T05:05:12.180Z,82.19
2022-12-25T05:10:15.491Z,82.21
2022-12-25T05:15:18.785Z,82.19
2022-12-25T05:20:22.008Z,82.13
2022-12-25T05:25:25.326Z,81.92
2022-12-25T05:30:28.557Z,81.96
2022-12-25T05:35:32.530Z,82.13
2022-12-25T05:40:40.315Z,82.04
2022-12-25T05:45:43.670Z,82.01
2022-12-25T05:50:46.989Z,81.77
2022-12-25T05:55:50.322Z,81.41
2022-12-25T06:00:53.656Z,81.28
2022-12-25T06:05:58.031Z,81.41
2022-12-25T06:11:06.117Z,81.66
2022-12-25T06:16:12.566Z,81.79
2022-12-25T06:21:16.683Z,81.91
2022-12-25T06:26:20.711Z,81.88
2022-12-25T06:31:25.127Z,81.84
2022-12-25T06:36:29.779Z,81.89
2022-12-25T06:41:33.176Z,81.98
2022-12-25T06:46:36.606Z,81.98
2022-12-25T06:51:39.939Z,81.93
2022-12-25T06:56:43.222Z,81.99
2022-12-25T07:01:49.023Z,82.05
2022-12-25T07:06:53.106Z,81.98
2022-12-25T07:12:04.608Z,81.92
2022-12-25T07:17:08.363Z,81.76
2022-12-25T07:22:11.668Z,81.76
2022-12-25T07:27:14.994Z,81.86
2022-12-25T07:32:18.741Z,81.95
2022-12-25T07:37:22.451Z,81.86
2022-12-25T07:42:25.816Z,81.87
2022-12-25T07:47:29.668Z,81.89
2022-12-25T07:52:43.058Z,81.48
2022-12-25T07:57:46.850Z,81.54
2022-12-25T08:02:51.473Z,81.84
2022-12-25T08:07:57.962Z,81.80
2022-12-25T08:13:01.703Z,81.32
2022-12-25T08:18:05.319Z,81.65
2022-12-25T08:23:08.855Z,81.16
2022-12-25T08:28:12.408Z,80.77
2022-12-25T08:33:15.683Z,80.85
2022-12-25T08:38:19.004Z,80.99
2022-12-25T08:43:22.953Z,80.67
2022-12-25T08:48:26.451Z,80.77
2022-12-25T08:53:30.510Z,80.24
2022-12-25T08:58:33.967Z,80.85
2022-12-25T09:03:37.594Z,79.87
2022-12-25T09:08:48.117Z,80.05
2022-12-25T09:13:53.223Z,79.71
2022-12-25T09:19:00.532Z,80.66
2022-12-25T09:24:05.640Z,80.71
2022-12-25T09:29:09.394Z,80.40
2022-12-25T09:34:18.810Z,80.52
2022-12-25T09:39:23.797Z,80.79
2022-12-25T09:44:33.539Z,80.07
2022-12-25T09:49:59.289Z,80.13
2022-12-25T09:55:06.673Z,78.95
2022-12-25T10:00:22.397Z,78.43
2022-12-25T10:05:36.200Z,79.76
2022-12-25T10:10:51.785Z,77.00
2022-12-25T10:16:29.488Z,77.34
2022-12-25T10:21:33.654Z,78.95
2022-12-25T10:26:37.393Z,78.88
2022-12-25T10:31:42.319Z,79.09
2022-12-25T10:36:46.821Z,79.53
2022-12-25T10:42:27.285Z,80.65
2022-12-25T10:47:34.805Z,81.05
2022-12-25T10:52:52.654Z,78.50
2022-12-25T10:57:58.382Z,79.61
2022-12-25T11:03:02.526Z,79.65
2022-12-25T11:08:22.194Z,80.02
2022-12-25T11:13:28.458Z,78.71
2022-12-25T11:18:53.142Z,79.94
2022-12-25T11:24:02.957Z,80.34
2022-12-25T11:29:22.571Z,81.02
2022-12-25T11:34:34.203Z,79.84
2022-12-25T11:39:42.300Z,78.68
2022-12-25T11:44:56.569Z,79.21
2022-12-25T11:50:06.902Z,79.12
2022-12-25T11:55:37.639Z,78.99
2022-12-25T12:00:43.712Z,79.17
2022-12-25T12:06:02.517Z,80.16
2022-12-25T12:11:22.233Z,79.36
2022-12-25T12:16:29.994Z,79.59
2022-12-25T12:21:33.557Z,80.58
2022-12-25T12:26:41.156Z,80.51
2022-12-25T12:31:49.119Z,79.95
2022-12-25T12:36:59.682Z,79.10
2022-12-25T12:42:12.135Z,79.43
2022-12-25T12:47:43.247Z,79.60
2022-12-25T12:52:48.835Z,79.80
2022-12-25T12:57:59.458Z,80.41
2022-12-25T13:03:35.064Z,79.82
2022-12-25T13:09:01.940Z,79.73
2022-12-25T13:14:05.418Z,80.16
2022-12-25T13:19:14.758Z,80.19
2022-12-25T13:24:24.436Z,80.25
2022-12-25T13:29:33.187Z,80.25
2022-12-25T13:34:38.835Z,80.32
2022-12-25T13:39:50.519Z,80.00
2022-12-25T13:44:56.393Z,80.14
2022-12-25T13:50:14.178Z,80.09
2022-12-25T13:55:20.646Z,80.10
2022-12-25T14:00:31.726Z,80.11
2022-12-25T14:05:42.670Z,80.17
2022-12-25T14:10:52.829Z,80.38
2022-12-25T14:15:58.802Z,80.69
2022-12-25T14:21:16.063Z,81.12
2022-12-25T14:26:27.992Z,81.47
2022-12-25T14:31:33.466Z,81.80
2022-12-25T14:36:37.907Z,81.95
2022-12-25T14:41:42.459Z,81.94
2022-12-25T14:46:45.760Z,82.17
2022-12-25T14:51:49.699Z,82.21
2022-12-25T14:56:56.859Z,82.38
2022-12-25T15:02:03.681Z,82.54
2022-12-25T15:07:28.301Z,82.67
2022-12-25T15:12:31.698Z,82.75
2022-12-25T15:17:37.049Z,82.83
2022-12-25T15:23:02.853Z,83.11
2022-12-25T15:28:08.039Z,83.16
2022-12-25T15:33:18.530Z,83.42
2022-12-25T15:38:22.730Z,83.48
2022-12-25T15:43:41.905Z,83.46
2022-12-25T15:48:45.337Z,83.59
2022-12-25T15:53:49.209Z,83.83
2022-12-25T15:58:52.831Z,84.02
2022-12-25T16:03:58.982Z,84.31
2022-12-25T16:09:02.374Z,84.46
2022-12-25T16:14:06.445Z,84.59
2022-12-25T16:19:09.745Z,84.45
2022-12-25T16:24:14.461Z,84.38
2022-12-25T16:29:18.471Z,84.66
2022-12-25T16:34:21.758Z,84.66
2022-12-25T16:39:25.492Z,84.58
2022-12-25T16:44:29.024Z,84.77
2022-12-25T16:49:32.630Z,84.60
2022-12-25T16:54:36.632Z,84.91
2022-12-25T16:59:40.043Z,85.06
2022-12-25T17:04:45.099Z,85.09
2022-12-25T17:09:49.982Z,85.16
2022-12-25T17:14:53.885Z,85.03
2022-12-25T17:19:57.924Z,85.31
2022-12-25T17:25:01.453Z,85.68
2022-12-25T17:30:05.561Z,85.71
2022-12-25T17:35:09.335Z,85.85
2022-12-25T17:40:13.241Z,85.87
2022-12-25T17:45:16.796Z,86.49
2022-12-25T17:50:20.132Z,86.57
2022-12-25T17:55:23.433Z,86.46
2022-12-25T18:00:27.092Z,86.68
2022-12-25T18:05:30.593Z,86.68
2022-12-25T18:10:43.969Z,86.51
2022-12-25T18:15:47.652Z,86.52
2022-12-25T18:20:53.485Z,86.64
2022-12-25T18:25:57.339Z,86.47
2022-12-25T18:31:01.339Z,86.41
2022-12-25T18:36:05.386Z,86.53
2022-12-25T18:41:11.087Z,86.67
2022-12-25T18:46:17.761Z,86.60
2022-12-25T18:51:21.360Z,86.07
2022-12-25T18:56:25.204Z,86.53
2022-12-25T19:01:28.970Z,86.78
2022-12-25T19:06:35.391Z,86.88
2022-12-25T19:11:46.186Z,86.57
2022-12-25T19:16:52.413Z,86.55
2022-12-25T19:21:57.878Z,86.68
2022-12-25T19:27:01.287Z,86.37
2022-12-25T19:32:04.899Z,86.63
2022-12-25T19:37:08.800Z,86.50
2022-12-25T19:42:14.026Z,86.69
2022-12-25T19:47:17.576Z,86.92
2022-12-25T19:52:21.048Z,86.86
2022-12-25T19:57:24.316Z,86.78
2022-12-25T20:02:27.759Z,86.83
2022-12-25T20:07:31.570Z,87.07
2022-12-25T20:12:35.153Z,87.25
2022-12-25T20:17:38.628Z,87.54
2022-12-25T20:22:42.020Z,87.62
2022-12-25T20:27:45.728Z,87.63
2022-12-25T20:32:50.771Z,87.87
2022-12-25T20:37:54.266Z,88.17
2022-12-25T20:42:57.570Z,88.07
2022-12-25T20:48:01.475Z,87.59
2022-12-25T20:53:05.090Z,87.36
2022-12-25T20:58:08.377Z,87.22
2022-12-25T21:03:12.321Z,87.28
2022-12-25T21:08:21.087Z,87.25
2022-12-25T21:13:26.743Z,87.41
2022-12-25T21:18:30.105Z,87.51
2022-12-25T21:23:35.792Z,87.58
2022-12-25T21:28:39.229Z,87.67
2022-12-25T21:33:51.710Z,87.47
2022-12-25T21:39:01.269Z,87.39
2022-12-25T21:44:05.518Z,87.31
2022-12-25T21:49:09.595Z,87.35
2022-12-25T21:54:14.065Z,87.33
2022-12-25T21:59:22.415Z,87.32
2022-12-25T22:04:26.064Z,87.34
2022-12-25T22:09:29.715Z,87.39
2022-12-25T22:14:59.359Z,87.48
2022-12-25T22:20:08.939Z,87.21
2022-12-25T22:25:15.166Z,87.20
2022-12-25T22:30:25.410Z,87.23
2022-12-25T22:35:28.720Z,87.28
2022-12-25T22:40:38.147Z,87.42
2022-12-25T22:45:41.577Z,87.39
2022-12-25T22:50:44.917Z,87.49
2022-12-25T22:55:49.812Z,87.55
2022-12-25T23:00:53.252Z,87.49
2022-12-25T23:05:57.430Z,87.46
2022-12-25T23:11:05.950Z,87.40
2022-12-25T23:16:14.797Z,87.48
2022-12-25T23:21:37.290Z,87.62
2022-12-25T23:26:40.575Z,87.67
2022-12-25T23:31:44.274Z,87.82
2022-12-25T23:36:47.959Z,87.92
2022-12-25T23:41:51.827Z,87.97
2022-12-25T23:46:55.420Z,87.93
2022-12-25T23:51:58.800Z,87.98
2022-12-25T23:57:02.209Z,88.01
